8A3

Livingston Municipal Airport

Livingston, Tennessee, USA
METAR K8A3 132215Z AUTO 03009KT 9SM OVC009 02/01 A3028 RMK A01
Observed Flight Rules
Nov-13 @ 22:15 UTC (15 minutes ago) Instrument Flight Rules
Wind Visibility Clouds
30° at 9 knots 9 miles
  • Overcast at 900' AGL
Temperatures Readings
Current 2°C / 36°F
Dewpoint 1°C / 34°F
Humidity 93%
Altimeter 30.28" Hg
Pressure 1025 hPa
Elevation 419
METAR K8A3 132215Z AUTO 03009KT 9SM OVC009 02/01 A3028 RMK A01
Observed Flight Rules
Nov-13 @ 22:15 UTC
(15 minutes ago)
IFR
Wind Visibility
30° at 9 knots 9 miles
Clouds
  • Overcast at 900' AGL
Temperature Dewpoint
2°C / 36°F 1°C / 34°F
Humidity Altimeter Pressure
93% 30.28" Hg 1025 hPa